Thursday, November 23, 2017, 4:38 AM EST
Back to Local

KALB, Albany International Airport

Location: Latham, NY, United States Lat: 42.75
Local Time: 4:38 AM EST ( 9:38 GMT) Lon: -73.8
Time Zone: US/Eastern Elev: 285 ft

Show me the last for .
Show Decoded

2017-11-23 03:51 METAR KALB 230851Z 30014KT 10SM OVC038 M01/M07 A3011 RMK AO2 SLP198 T10061067
                 51008 =
2017-11-23 02:51 METAR KALB 230751Z 28009KT 10SM OVC037 00/M06 A3010 RMK AO2 SLP194 T00001061 =
2017-11-23 01:51 METAR KALB 230651Z 29013KT 10SM OVC037 01/M06 A3009 RMK AO2 SLP192 T00061056 =
2017-11-23 00:51 METAR KALB 230551Z 30009KT 10SM BKN034 01/M05 A3008 RMK AO2 SLP189 T00061050
                 10033 20006 51003 =
2017-11-22 23:51 METAR KALB 230451Z 31012G18KT 10SM OVC035 01/M05 A3008 RMK AO2 SLP188 T00111050
                 400780011 =
2017-11-22 22:51 METAR KALB 230351Z 30012KT 10SM OVC036 02/M06 A3008 RMK AO2 SLP188 OCNL BINOVC
                 T00171056 =
2017-11-22 21:51 METAR KALB 230251Z 32016G26KT 10SM OVC040 02/M07 A3007 RMK AO2 PK WND 32029/0216
                 SLP186 BINOVC T00171067 51011 =
2017-11-22 20:51 METAR KALB 230151Z 32014G25KT 10SM OVC043 02/M07 A3007 RMK AO2 PK WND 32030/0127
                 SLP185 OVC V BKN T00221072 =
2017-11-22 19:51 METAR KALB 230051Z 33018G24KT 10SM FEW025 BKN042 03/M06 A3005 RMK AO2 PK WND
                 32031/0034 SLP177 BKN V OVC T00281061 =
2017-11-22 18:51 METAR KALB 222351Z 29015G21KT 10SM FEW023 OVC045 03/M02 A3004 RMK AO2 SLP175
                 BINOVC T00281022 10061 20028 51018 =
2017-11-22 17:51 METAR KALB 222251Z 30011KT 10SM FEW035 BKN047 OVC055 03/M02 A3003 RMK AO2 SLP170
                 T00281017 =
2017-11-22 16:51 METAR KALB 222151Z 29015KT 10SM FEW030 FEW043 OVC050 03/M01 A3000 RMK AO2 SLP162
                 VCSH SW-W BINOVC T00331011 =
2017-11-22 15:51 METAR KALB 222051Z 29012KT 10SM FEW030 SCT047 SCT075 04/M02 A2999 RMK AO2 SLP157
                 SCT075 V BKN VCSH W T00391022 53013 =
2017-11-22 14:51 METAR KALB 221951Z 30012G22KT 10SM FEW025 SCT042 OVC075 06/M02 A2997 RMK AO2
                 SLP152 BINOVC T00561017 =
2017-11-22 13:51 METAR KALB 221851Z 29012KT 10SM FEW025 BKN048 BKN070 06/00 A2995 RMK AO2 SLP144
                 T00560000 =
2017-11-22 12:51 METAR KALB 221751Z 30012KT 10SM FEW012 SCT033 OVC060 06/00 A2995 RMK AO2 RAE1658
                 SLP143 P0000 60006 T00560000 10061 20044 55000 =
2017-11-22 11:51 METAR KALB 221651Z 30010KT 10SM -RA FEW014 SCT026 OVC043 05/02 A2994 RMK AO2
                 SLP140 SCT V BKN PCPN VRY LGT P0001 T00500022 =
2017-11-22 11:27 METAR KALB 221627Z 29013KT 10SM -RA FEW014 BKN029 OVC041 05/02 A2994 RMK AO2 BKN
                 V SCT P0001 T00500022 =
2017-11-22 10:51 METAR KALB 221551Z 29009KT 10SM -RA FEW015 BKN032 OVC038 06/03 A2995 RMK AO2
                 SLP145 P0003 T00560028 =
2017-11-22 09:51 METAR KALB 221451Z 00000KT 9SM -RA BKN041 OVC060 06/02 A2995 RMK AO2 RAB1352
                 SLP143 P0002 60002 T00560022 51016 =
2017-11-22 08:51 METAR KALB 221351Z 33005KT 10SM SCT055 BKN075 OVC120 06/01 A2994 RMK AO2 SLP139
                 PRESENT WX VCSH T00560011 =
2017-11-22 07:51 METAR KALB 221251Z 00000KT 10SM FEW060 BKN085 BKN120 OVC200 05/01 A2992 RMK AO2
                 SLP133 OCNL BINOVC T00500011 =
2017-11-22 06:51 METAR KALB 221151Z 17003KT 10SM SCT110 BKN160 BKN200 BKN260 05/00 A2990 RMK AO2
                 SLP126 T00500000 10072 20039 55009 =
2017-11-22 05:51 METAR KALB 221051Z COR 19004KT 10SM FEW100 OVC260 04/00 A2989 RMK AO2 SLP122
                 T00440000 =
2017-11-22 04:51 METAR KALB 220951Z 16005KT 10SM FEW095 FEW200 BKN260 06/00 A2991 RMK AO2 SLP130
                 T00610000 =

Support USWX by starting your Amazon purchase here.